Time;durP1;ratioP1;P1;durP2;ratioP2;P2;SDS_P1;SDS_P2;PMS_P1;PMS_P2;Temp;Humidity;BMP_temperature;BMP_pressure;BME280_temperature;BME280_humidity;BME280_pressure;Samples;Min_cycle;Max_cycle;Signal;HPM_P1;HPM_P2
2022/09/09 00:01:30;;;;;;;5.05;1.80;;;18.70;74.90;;;;;;5095574;28;20032;-67
2022/09/09 00:04:11;;;;;;;;;;;18.70;75.00;;;;;;5063889;28;20025;-67
2022/09/09 00:06:56;;;;;;;5.45;1.98;;;18.60;74.80;;;;;;5069998;28;20298;-67
2022/09/09 00:09:26;;;;;;;4.47;2.08;;;18.60;74.90;;;;;;5094025;28;20027;-67
2022/09/09 00:11:58;;;;;;;4.53;2.07;;;18.60;74.80;;;;;;5085832;28;20421;-67
2022/09/09 00:14:48;;;;;;;5.07;2.33;;;18.70;74.90;;;;;;5095558;28;20315;-67
2022/09/09 00:17:26;;;;;;;7.40;2.30;;;18.70;75.10;;;;;;5080875;28;20051;-67
2022/09/09 00:20:29;;;;;;;5.10;2.20;;;18.60;75.00;;;;;;5081411;28;20116;-66
2022/09/09 00:23:19;;;;;;;5.93;2.40;;;18.70;75.20;;;;;;5093733;28;20039;-67
2022/09/09 00:26:23;;;;;;;5.05;2.40;;;18.60;75.20;;;;;;5095855;28;20032;-67
2022/09/09 00:29:14;;;;;;;6.53;2.20;;;18.70;75.30;;;;;;5062314;28;20032;-67
2022/09/09 00:31:40;;;;;;;5.65;2.58;;;18.60;75.30;;;;;;5086509;28;20449;-67
2022/09/09 00:34:13;;;;;;;5.03;2.00;;;18.60;75.30;;;;;;5087888;28;20077;-67
2022/09/09 00:36:41;;;;;;;7.00;2.17;;;18.60;75.30;;;;;;5078002;28;20028;-67
2022/09/09 00:39:15;;;;;;;6.90;2.50;;;18.60;75.40;;;;;;5094641;28;20133;-66
2022/09/09 00:42:03;;;;;;;5.53;2.17;;;18.60;75.50;;;;;;5095435;28;20032;-67
2022/09/09 00:44:36;;;;;;;5.22;1.98;;;18.70;75.70;;;;;;5094167;28;20020;-67
2022/09/09 00:47:09;;;;;;;5.80;2.40;;;18.70;75.60;;;;;;5087184;28;20052;-67
2022/09/09 00:50:01;;;;;;;5.03;1.92;;;18.70;75.50;;;;;;5087891;28;20024;-67
2022/09/09 00:52:49;;;;;;;4.28;2.00;;;18.70;75.40;;;;;;5095725;28;20032;-67
2022/09/09 00:55:26;;;;;;;4.70;2.10;;;18.60;75.30;;;;;;5072990;28;20574;-67
2022/09/09 00:57:53;;;;;;;6.30;2.72;;;18.60;75.40;;;;;;5076920;28;20039;-67
2022/09/09 01:00:23;;;;;;;4.43;1.88;;;18.60;75.40;;;;;;5049667;28;20054;-67
2022/09/09 01:03:08;;;;;;;4.97;2.10;;;18.60;75.40;;;;;;5064595;28;20028;-67
2022/09/09 01:05:52;;;;;;;4.82;2.03;;;18.60;75.30;;;;;;5070201;28;20294;-67
2022/09/09 01:08:38;;;;;;;4.10;2.20;;;18.60;75.30;;;;;;5055923;28;20032;-67
2022/09/09 01:11:04;;;;;;;4.65;2.20;;;18.60;75.30;;;;;;5090216;28;20084;-67
2022/09/09 01:13:33;;;;;;;5.22;2.15;;;18.60;75.30;;;;;;5067952;28;20499;-67
2022/09/09 01:16:07;;;;;;;5.05;2.20;;;18.50;75.20;;;;;;5066877;28;20321;-67
2022/09/09 01:18:40;;;;;;;3.83;1.60;;;18.50;75.20;;;;;;5061348;28;20027;-67
2022/09/09 01:21:33;;;;;;;5.28;2.47;;;18.50;75.20;;;;;;5065797;28;20020;-67
2022/09/09 01:24:27;;;;;;;3.63;1.90;;;18.50;75.10;;;;;;5092542;28;20127;-67
2022/09/09 01:27:05;;;;;;;6.28;2.25;;;18.50;75.30;;;;;;5065782;28;20028;-66
2022/09/09 01:29:32;;;;;;;4.38;2.03;;;18.40;75.20;;;;;;5076042;28;20460;-66
2022/09/09 01:32:23;;;;;;;4.97;1.95;;;18.40;75.20;;;;;;5076637;28;20035;-67
2022/09/09 01:34:51;;;;;;;5.30;2.25;;;18.40;75.30;;;;;;5072226;28;20035;-67
2022/09/09 01:37:17;;;;;;;5.05;1.85;;;18.40;75.30;;;;;;5074057;28;20020;-67
2022/09/09 01:39:44;;;;;;;5.78;2.45;;;18.40;75.40;;;;;;5093681;28;20034;-67
2022/09/09 01:42:15;;;;;;;4.53;2.10;;;18.30;75.40;;;;;;5060132;28;20035;-67
2022/09/09 01:44:41;;;;;;;4.30;1.80;;;18.30;75.30;;;;;;5069475;28;20028;-67
2022/09/09 01:47:07;;;;;;;5.43;1.90;;;18.30;75.30;;;;;;5076536;28;20185;-67
2022/09/09 01:49:36;;;;;;;5.00;2.10;;;18.30;75.40;;;;;;5075135;28;20046;-67
2022/09/09 01:52:09;;;;;;;4.75;1.85;;;18.30;75.30;;;;;;5074908;28;20028;-67
2022/09/09 01:54:37;;;;;;;5.38;2.03;;;18.20;75.30;;;;;;5067352;28;20020;-67
2022/09/09 01:57:13;;;;;;;3.75;1.73;;;18.20;75.30;;;;;;5073799;28;20028;-67
2022/09/09 02:00:06;;;;;;;4.00;1.42;;;18.20;75.40;;;;;;5063336;28;20035;-67
2022/09/09 02:03:13;;;;;;;4.18;1.63;;;18.20;75.20;;;;;;5094252;28;20032;-67
2022/09/09 02:06:27;;;;;;;4.57;1.60;;;18.20;75.20;;;;;;5076027;28;20069;-67
2022/09/09 02:09:01;;;;;;;6.60;1.70;;;18.20;75.20;;;;;;5074669;28;20396;-67
2022/09/09 02:11:28;;;;;;;4.30;1.75;;;18.10;75.30;;;;;;5076363;28;20020;-67
2022/09/09 02:14:24;;;;;;;3.90;1.85;;;18.10;75.30;;;;;;5092434;28;20471;-67
2022/09/09 02:16:56;;;;;;;5.13;1.77;;;18.10;75.20;;;;;;5076126;28;20060;-67
2022/09/09 02:19:35;;;;;;;3.40;1.50;;;18.10;75.20;;;;;;5053924;28;20040;-67
2022/09/09 02:22:22;;;;;;;4.45;1.60;;;18.00;75.20;;;;;;5074676;28;20039;-67
2022/09/09 02:24:51;;;;;;;6.95;1.73;;;18.00;75.30;;;;;;5069529;28;20028;-67
2022/09/09 02:27:22;;;;;;;3.78;1.67;;;18.00;75.30;;;;;;5074466;28;20016;-67
2022/09/09 02:29:50;;;;;;;6.45;2.05;;;18.00;75.30;;;;;;5075672;28;20380;-67
2022/09/09 02:32:23;;;;;;;4.05;1.90;;;17.90;75.20;;;;;;5073111;28;20393;-67
2022/09/09 02:34:57;;;;;;;3.92;1.60;;;17.90;75.20;;;;;;5091929;28;20043;-66
2022/09/09 02:37:28;;;;;;;4.70;1.77;;;17.90;75.20;;;;;;5074596;28;20024;-67
2022/09/09 02:39:55;;;;;;;3.92;1.80;;;17.90;75.20;;;;;;5074833;28;20131;-66
2022/09/09 02:42:22;;;;;;;3.67;1.83;;;17.90;75.20;;;;;;5076071;28;20038;-66
2022/09/09 02:44:48;;;;;;;5.13;1.90;;;17.90;75.20;;;;;;5069558;28;20077;-66
2022/09/09 02:47:33;;;;;;;3.65;1.65;;;17.90;75.80;;;;;;5075488;28;20024;-66
2022/09/09 02:50:13;;;;;;;4.78;1.90;;;17.80;75.10;;;;;;5069036;28;20020;-66
2022/09/09 02:52:54;;;;;;;4.55;1.90;;;17.80;75.10;;;;;;5077220;28;20030;-67
2022/09/09 02:55:32;;;;;;;3.97;1.98;;;17.80;75.20;;;;;;5069602;28;20028;-67
2022/09/09 02:58:01;;;;;;;5.20;2.10;;;17.80;75.20;;;;;;5075098;28;20031;-67
2022/09/09 03:00:28;;;;;;;4.03;1.90;;;17.80;75.20;;;;;;5076629;28;20070;-67
2022/09/09 03:02:58;;;;;;;6.22;2.10;;;17.70;75.10;;;;;;5096692;28;20028;-67
2022/09/09 03:05:26;;;;;;;6.13;2.10;;;17.70;75.10;;;;;;5075989;28;20528;-67
2022/09/09 03:07:51;;;;;;;4.38;1.83;;;17.70;75.10;;;;;;5063341;28;20468;-67
2022/09/09 03:10:19;;;;;;;4.82;2.00;;;17.70;75.20;;;;;;5063914;28;20017;-67
2022/09/09 03:12:44;;;;;;;5.10;2.25;;;17.70;75.10;;;;;;5078642;28;20051;-67
2022/09/09 03:15:11;;;;;;;5.60;2.28;;;17.70;75.10;;;;;;5079442;28;20440;-67
2022/09/09 03:17:37;;;;;;;4.97;2.30;;;17.60;75.10;;;;;;5068492;28;20480;-67
2022/09/09 03:20:04;;;;;;;5.15;2.08;;;17.70;75.10;;;;;;5094393;28;20032;-67
2022/09/09 03:22:30;;;;;;;4.93;2.05;;;17.70;75.20;;;;;;5079004;28;20028;-67
2022/09/09 03:24:59;;;;;;;5.82;1.92;;;17.60;75.10;;;;;;5076571;28;20142;-67
2022/09/09 03:27:25;;;;;;;5.50;2.10;;;17.70;75.10;;;;;;5079706;28;20115;-67
2022/09/09 03:29:52;;;;;;;5.45;2.28;;;17.60;75.10;;;;;;5078813;28;20035;-67
2022/09/09 03:32:22;;;;;;;4.50;2.10;;;17.70;75.20;;;;;;5079427;28;20027;-67
2022/09/09 03:34:51;;;;;;;5.00;2.10;;;17.70;75.20;;;;;;5049040;28;20021;-67
2022/09/09 03:37:18;;;;;;;5.05;2.15;;;17.60;75.10;;;;;;5079096;28;20051;-67
2022/09/09 03:39:44;;;;;;;7.80;2.33;;;17.60;75.10;;;;;;5077906;28;20420;-67
2022/09/09 03:42:18;;;;;;;5.57;2.58;;;17.60;75.00;;;;;;5070455;28;20028;-67
2022/09/09 03:44:49;;;;;;;4.93;2.05;;;17.60;75.00;;;;;;5094621;28;20031;-67
2022/09/09 03:47:18;;;;;;;6.05;2.72;;;17.60;75.10;;;;;;5069615;28;20031;-67
2022/09/09 03:49:44;;;;;;;5.47;2.55;;;17.60;75.10;;;;;;5073131;28;20437;-67
2022/09/09 03:52:10;;;;;;;6.78;2.35;;;17.60;75.20;;;;;;5078805;28;20053;-67
2022/09/09 03:54:35;;;;;;;5.40;2.65;;;17.60;75.20;;;;;;5076650;28;20444;-67
2022/09/09 03:57:02;;;;;;;4.30;2.20;;;17.60;75.30;;;;;;5094046;28;20029;-67
2022/09/09 03:59:27;;;;;;;5.43;2.42;;;17.60;75.30;;;;;;5067140;28;20016;-67
2022/09/09 04:01:54;;;;;;;5.10;2.17;;;17.60;75.30;;;;;;5068626;28;20280;-67
2022/09/09 04:04:20;;;;;;;5.65;2.47;;;17.60;75.30;;;;;;5073596;28;20031;-67
2022/09/09 04:06:48;;;;;;;5.68;2.28;;;17.60;75.40;;;;;;5096648;28;20024;-67
2022/09/09 04:09:14;;;;;;;4.70;2.42;;;17.60;75.40;;;;;;5077995;28;20035;-67
2022/09/09 04:11:41;;;;;;;5.93;2.45;;;17.60;75.50;;;;;;5067017;28;20477;-67
2022/09/09 04:14:08;;;;;;;6.90;2.58;;;17.60;75.50;;;;;;5057611;28;20024;-67
2022/09/09 04:16:37;;;;;;;5.32;2.47;;;17.60;75.60;;;;;;5078387;28;20452;-67
2022/09/09 04:19:04;;;;;;;7.15;2.70;;;17.60;75.70;;;;;;5078739;28;20458;-67
2022/09/09 04:21:30;;;;;;;7.88;2.70;;;17.60;75.70;;;;;;5076059;28;20036;-67
2022/09/09 04:23:56;;;;;;;4.75;2.40;;;17.60;75.70;;;;;;5067560;28;20047;-67
2022/09/09 04:26:22;;;;;;;6.32;2.50;;;17.60;75.80;;;;;;5077082;28;20059;-67
2022/09/09 04:28:48;;;;;;;6.93;3.03;;;17.60;75.80;;;;;;5064793;28;20097;-67
2022/09/09 04:31:21;;;;;;;6.03;2.60;;;17.60;75.90;;;;;;5068143;28;20089;-67
2022/09/09 04:33:51;;;;;;;5.55;2.67;;;17.60;76.00;;;;;;5068253;28;20080;-67
2022/09/09 04:36:19;;;;;;;6.07;2.60;;;17.60;76.00;;;;;;5095163;28;20035;-67
2022/09/09 04:38:45;;;;;;;6.00;2.58;;;17.70;76.10;;;;;;5077739;28;20111;-67
2022/09/09 04:41:12;;;;;;;6.40;2.67;;;17.70;76.10;;;;;;5075624;28;20020;-66
2022/09/09 04:43:42;;;;;;;4.68;2.33;;;17.70;76.10;;;;;;5067034;28;20043;-66
2022/09/09 04:46:08;;;;;;;5.97;2.58;;;17.60;76.10;;;;;;5066324;28;20020;-67
2022/09/09 04:48:34;;;;;;;5.78;2.70;;;17.70;76.30;;;;;;5064377;28;20031;-67
2022/09/09 04:51:05;;;;;;;7.22;2.60;;;17.70;76.40;;;;;;5052275;28;20526;-67
2022/09/09 04:53:35;;;;;;;7.35;2.55;;;17.70;76.50;;;;;;5063958;28;20016;-67
2022/09/09 04:56:12;;;;;;;5.95;2.40;;;17.70;76.50;;;;;;5094420;28;20341;-67
2022/09/09 04:58:43;;;;;;;6.22;2.22;;;17.70;76.50;;;;;;5075873;28;20043;-66
2022/09/09 05:01:12;;;;;;;4.97;2.47;;;17.70;76.50;;;;;;5071598;28;20016;-67
2022/09/09 05:03:39;;;;;;;5.88;2.63;;;17.70;76.50;;;;;;5069750;28;20031;-66
2022/09/09 05:06:10;;;;;;;6.25;2.72;;;17.70;76.60;;;;;;5062037;28;20365;-67
2022/09/09 05:08:38;;;;;;;5.82;2.40;;;17.70;76.80;;;;;;5066405;28;20373;-67
2022/09/09 05:11:17;;;;;;;6.80;2.47;;;17.70;76.80;;;;;;5089632;28;20099;-67
2022/09/09 05:13:44;;;;;;;5.47;2.47;;;17.70;76.80;;;;;;5088645;28;20035;-67
2022/09/09 05:16:11;;;;;;;4.90;2.25;;;17.80;76.90;;;;;;5071215;28;20102;-67
2022/09/09 05:18:38;;;;;;;11.90;2.55;;;17.80;77.00;;;;;;5056432;28;20454;-66
2022/09/09 05:21:04;;;;;;;5.25;2.00;;;17.80;77.00;;;;;;5060714;28;20487;-67
2022/09/09 05:23:30;;;;;;;6.88;2.15;;;17.80;77.00;;;;;;5072010;28;20495;-67
2022/09/09 05:25:57;;;;;;;8.02;2.50;;;17.90;77.10;;;;;;5064612;28;20028;-67
2022/09/09 05:28:27;;;;;;;4.82;2.13;;;17.90;77.10;;;;;;5052191;28;20394;-67
2022/09/09 05:30:58;;;;;;;5.80;2.15;;;17.90;77.10;;;;;;5060133;28;20060;-67
2022/09/09 05:33:25;;;;;;;7.47;2.20;;;17.90;77.20;;;;;;5069069;28;20492;-67
2022/09/09 05:36:02;;;;;;;7.78;2.47;;;17.90;77.20;;;;;;5055465;28;20013;-68
2022/09/09 05:38:29;;;;;;;7.82;2.75;;;17.90;77.20;;;;;;5066095;28;20526;-67
2022/09/09 05:40:56;;;;;;;10.95;4.15;;;17.90;77.20;;;;;;5068499;28;20326;-67
2022/09/09 05:43:23;;;;;;;11.50;4.63;;;18.00;77.20;;;;;;5071032;28;20047;-67
2022/09/09 05:46:01;;;;;;;11.98;4.25;;;18.00;77.30;;;;;;5072016;28;20124;-67
2022/09/09 05:48:31;;;;;;;9.38;3.47;;;18.00;77.30;;;;;;5053618;28;20040;-67
2022/09/09 05:50:58;;;;;;;8.85;3.50;;;18.00;77.30;;;;;;5069391;28;20035;-67
2022/09/09 05:53:24;;;;;;;6.75;2.72;;;18.10;77.40;;;;;;5066250;28;20438;-67
2022/09/09 05:55:57;;;;;;;6.47;2.58;;;18.00;77.30;;;;;;5070894;28;20020;-67
2022/09/09 05:58:24;;;;;;;5.95;2.35;;;18.00;77.20;;;;;;5068232;28;20016;-67
2022/09/09 06:00:50;;;;;;;6.88;2.70;;;18.10;77.30;;;;;;5069363;28;20530;-67
2022/09/09 06:03:16;;;;;;;8.20;2.40;;;18.10;77.30;;;;;;5072511;28;20115;-67
2022/09/09 06:05:42;;;;;;;9.63;2.97;;;18.10;77.20;;;;;;5070661;28;20142;-67
2022/09/09 06:08:08;;;;;;;6.40;2.80;;;18.20;77.20;;;;;;5071402;28;20181;-66
2022/09/09 06:10:34;;;;;;;9.05;3.60;;;18.20;77.10;;;;;;5073395;28;20021;-66
2022/09/09 06:12:59;;;;;;;7.70;3.25;;;18.30;77.00;;;;;;5051941;28;20028;-66
2022/09/09 06:15:26;;;;;;;8.02;2.60;;;18.30;76.90;;;;;;5072333;28;20017;-66
2022/09/09 06:17:55;;;;;;;6.38;2.92;;;18.40;76.80;;;;;;5072690;28;20044;-66
2022/09/09 06:20:22;;;;;;;7.75;2.92;;;18.50;76.70;;;;;;5074809;28;20027;-66
2022/09/09 06:22:48;;;;;;;6.30;2.60;;;18.50;76.50;;;;;;5050825;28;20081;-67
2022/09/09 06:25:14;;;;;;;5.82;2.40;;;18.60;76.40;;;;;;5062682;28;20472;-68
2022/09/09 06:27:41;;;;;;;7.07;2.75;;;18.70;76.20;;;;;;5062404;28;20031;-67
2022/09/09 06:30:08;;;;;;;7.35;2.40;;;18.70;76.00;;;;;;5069624;28;20106;-67
2022/09/09 06:32:34;;;;;;;7.13;2.50;;;18.70;76.10;;;;;;5089138;28;20043;-67
2022/09/09 06:35:01;;;;;;;6.80;2.10;;;18.90;75.70;;;;;;5077144;28;20051;-67
2022/09/09 06:37:27;;;;;;;6.22;2.28;;;19.10;75.20;;;;;;5075632;28;20036;-67
2022/09/09 06:39:54;;;;;;;6.70;2.17;;;19.10;75.10;;;;;;5070523;28;20048;-67
2022/09/09 06:42:20;;;;;;;6.80;2.10;;;19.00;75.10;;;;;;5077678;28;20433;-66
2022/09/09 06:44:49;;;;;;;5.43;2.00;;;19.00;75.10;;;;;;5084989;28;20119;-66
2022/09/09 06:47:22;;;;;;;5.00;1.95;;;19.00;75.30;;;;;;5075858;28;20020;-66
2022/09/09 06:49:48;;;;;;;6.85;2.20;;;18.90;75.30;;;;;;5073829;28;20137;-66
2022/09/09 06:52:13;;;;;;;5.70;2.08;;;19.00;75.40;;;;;;5077517;28;20020;-67
2022/09/09 06:54:39;;;;;;;7.43;2.17;;;19.00;75.30;;;;;;5066365;28;20062;-67
2022/09/09 06:57:07;;;;;;;7.10;2.38;;;19.00;75.10;;;;;;5081607;28;20021;-66
2022/09/09 06:59:33;;;;;;;8.85;2.42;;;19.10;75.10;;;;;;5073633;28;20077;-66
2022/09/09 07:01:59;;;;;;;7.88;2.65;;;19.10;75.00;;;;;;5084538;28;20490;-67
2022/09/09 07:04:25;;;;;;;7.80;2.20;;;19.20;74.80;;;;;;5071862;28;20111;-67
2022/09/09 07:06:52;;;;;;;8.18;2.13;;;19.20;74.70;;;;;;5070577;28;20448;-67
2022/09/09 07:09:21;;;;;;;8.15;2.15;;;19.30;74.40;;;;;;5065712;28;20357;-67
2022/09/09 07:11:53;;;;;;;8.43;2.20;;;19.40;74.20;;;;;;5073839;28;20032;-66
2022/09/09 07:14:22;;;;;;;7.10;1.92;;;19.50;74.10;;;;;;5075684;28;20031;-67
2022/09/09 07:16:52;;;;;;;7.40;2.30;;;19.50;73.90;;;;;;5069982;28;20491;-67
2022/09/09 07:19:18;;;;;;;6.63;2.45;;;19.60;73.80;;;;;;5073809;28;20028;-66
2022/09/09 07:21:47;;;;;;;7.30;2.15;;;19.70;73.60;;;;;;5066354;28;20372;-67
2022/09/09 07:24:16;;;;;;;7.10;2.15;;;19.70;73.50;;;;;;5074782;28;20541;-67
2022/09/09 07:26:43;;;;;;;5.72;1.98;;;19.60;73.50;;;;;;5076272;28;20326;-68
2022/09/09 07:29:13;;;;;;;7.20;2.40;;;19.60;73.60;;;;;;5079065;28;20504;-68
2022/09/09 07:31:40;;;;;;;8.75;2.58;;;19.50;73.80;;;;;;5078389;28;20024;-67
2022/09/09 07:34:09;;;;;;;8.20;2.40;;;19.50;73.70;;;;;;5079187;28;20031;-67
2022/09/09 07:36:38;;;;;;;8.10;2.22;;;19.40;73.80;;;;;;5096937;28;20032;-68
2022/09/09 07:39:08;;;;;;;8.13;2.58;;;19.40;73.70;;;;;;5078953;28;20020;-68
2022/09/09 07:41:42;;;;;;;7.65;2.05;;;19.50;73.40;;;;;;5078503;28;20027;-68
2022/09/09 07:44:13;;;;;;;8.13;2.30;;;19.60;73.20;;;;;;5068109;28;20028;-68
2022/09/09 07:46:39;;;;;;;7.03;2.53;;;19.60;72.90;;;;;;5077232;28;20485;-67
2022/09/09 07:49:08;;;;;;;9.07;2.55;;;19.70;72.90;;;;;;5079145;28;20020;-68
2022/09/09 07:51:37;;;;;;;8.80;2.25;;;19.60;72.80;;;;;;5078678;28;20028;-68
2022/09/09 07:54:05;;;;;;;6.82;1.83;;;19.60;72.80;;;;;;5079194;28;20028;-67
2022/09/09 07:56:32;;;;;;;9.25;2.25;;;19.60;72.80;;;;;;5077908;28;20021;-68
2022/09/09 07:58:59;;;;;;;6.95;2.28;;;19.50;73.00;;;;;;5079431;28;20032;-67
2022/09/09 08:01:28;;;;;;;5.35;2.00;;;19.50;73.20;;;;;;5079394;28;20019;-67
2022/09/09 08:03:58;;;;;;;6.70;2.13;;;19.50;73.30;;;;;;5078654;28;20030;-67
2022/09/09 08:06:24;;;;;;;9.38;2.30;;;19.60;73.20;;;;;;5096808;28;20039;-66
2022/09/09 08:08:51;;;;;;;4.90;2.25;;;19.70;73.00;;;;;;5079153;28;20142;-68
2022/09/09 08:11:17;;;;;;;10.10;2.42;;;19.70;72.80;;;;;;5078742;28;20468;-67
2022/09/09 08:13:44;;;;;;;5.93;1.98;;;19.70;72.70;;;;;;5078772;28;20031;-67
2022/09/09 08:16:21;;;;;;;7.50;2.28;;;19.70;72.70;;;;;;5077733;28;20028;-67
2022/09/09 08:18:49;;;;;;;5.55;1.92;;;19.60;72.50;;;;;;5077690;28;20108;-67
2022/09/09 08:21:24;;;;;;;6.70;1.90;;;19.50;72.60;;;;;;5078624;28;20519;-67
2022/09/09 08:23:52;;;;;;;9.25;2.40;;;19.50;72.70;;;;;;5094511;28;20039;-67
2022/09/09 08:26:24;;;;;;;5.53;1.90;;;19.40;72.70;;;;;;5071647;28;20330;-67
2022/09/09 08:28:51;;;;;;;6.85;2.03;;;19.40;72.60;;;;;;5061586;28;20360;-68
2022/09/09 08:31:20;;;;;;;6.78;2.22;;;19.40;72.70;;;;;;5060890;28;20028;-67
2022/09/09 08:33:47;;;;;;;7.22;2.05;;;19.50;72.60;;;;;;5078209;28;20028;-67
2022/09/09 08:36:16;;;;;;;8.27;2.17;;;19.50;72.50;;;;;;5078292;28;20028;-67
2022/09/09 08:38:43;;;;;;;12.32;2.80;;;19.50;72.40;;;;;;5078244;28;20413;-67
2022/09/09 08:41:17;;;;;;;6.35;2.15;;;19.50;72.40;;;;;;5078242;28;20020;-67
2022/09/09 08:43:47;;;;;;;6.38;2.03;;;19.50;72.50;;;;;;5077929;28;20028;-67
2022/09/09 08:46:29;;;;;;;7.93;2.08;;;19.40;72.40;;;;;;5094738;28;20023;-67
2022/09/09 08:49:11;;;;;;;8.23;2.00;;;19.40;72.30;;;;;;5077242;28;20024;-67
2022/09/09 08:51:37;;;;;;;5.53;1.92;;;19.40;72.30;;;;;;5061437;28;20024;-68
2022/09/09 08:54:04;;;;;;;5.80;1.77;;;19.30;72.30;;;;;;5077905;28;20055;-67
2022/09/09 08:56:32;;;;;;;8.65;2.10;;;19.40;72.20;;;;;;5077879;28;20111;-67
2022/09/09 08:59:02;;;;;;;7.40;2.20;;;19.30;72.20;;;;;;5095782;28;20035;-68
2022/09/09 09:02:11;;;;;;;5.90;2.10;;;19.40;72.20;;;;;;5077912;28;20500;-68
2022/09/09 09:04:49;;;;;;;8.55;2.30;;;19.30;72.10;;;;;;5076431;28;20457;-68
2022/09/09 09:07:44;;;;;;;4.78;1.90;;;19.40;72.20;;;;;;5076707;28;20035;-67
2022/09/09 09:10:30;;;;;;;5.32;1.40;;;19.40;72.10;;;;;;5076991;28;20157;-68
2022/09/09 09:12:57;;;;;;;5.30;1.92;;;19.40;71.80;;;;;;5077404;28;20021;-68
2022/09/09 09:15:26;;;;;;;8.02;2.38;;;19.40;71.70;;;;;;5077348;28;20020;-68
2022/09/09 09:17:54;;;;;;;6.65;1.50;;;19.50;71.50;;;;;;5077273;28;20047;-68
2022/09/09 09:20:49;;;;;;;8.77;2.17;;;19.50;71.10;;;;;;5077216;28;20352;-68
2022/09/09 09:23:24;;;;;;;7.03;1.67;;;19.50;70.60;;;;;;5072395;28;20038;-67
2022/09/09 09:25:57;;;;;;;6.18;1.63;;;19.50;70.50;;;;;;5056642;28;20107;-67
2022/09/09 09:28:25;;;;;;;5.00;1.60;;;19.60;70.40;;;;;;5074517;28;20059;-67
2022/09/09 09:31:26;;;;;;;6.82;1.67;;;19.60;70.40;;;;;;5066160;28;20020;-67
2022/09/09 09:33:54;;;;;;;9.45;1.92;;;19.60;70.20;;;;;;5057587;28;20115;-66
2022/09/09 09:36:46;;;;;;;6.93;1.70;;;19.50;70.30;;;;;;5068391;28;20058;-66
2022/09/09 09:39:23;;;;;;;7.55;1.73;;;19.50;70.30;;;;;;5074566;28;20441;-67
2022/09/09 09:41:50;;;;;;;5.50;1.42;;;19.50;70.40;;;;;;5067392;28;20025;-66
2022/09/09 09:44:24;;;;;;;8.60;2.13;;;19.60;70.30;;;;;;5073602;28;20028;-67
2022/09/09 09:46:51;;;;;;;6.65;2.00;;;19.60;70.00;;;;;;5074470;28;20749;-66
2022/09/09 09:49:17;;;;;;;7.82;1.98;;;19.70;70.00;;;;;;5075239;28;20052;-66
2022/09/09 09:51:43;;;;;;;4.70;1.42;;;19.70;69.90;;;;;;5074124;28;20050;-66
2022/09/09 09:54:28;;;;;;;7.32;2.10;;;19.80;69.70;;;;;;5076787;28;20055;-66
2022/09/09 09:57:09;;;;;;;5.28;1.58;;;19.90;69.50;;;;;;5074621;28;20498;-66
2022/09/09 09:59:39;;;;;;;11.00;1.90;;;20.00;69.10;;;;;;5076974;28;20030;-66
2022/09/09 10:02:13;;;;;;;5.75;1.55;;;20.10;68.80;;;;;;5064028;28;20032;-67
2022/09/09 10:04:39;;;;;;;7.30;1.80;;;20.20;68.60;;;;;;5058641;28;20548;-66
2022/09/09 10:07:20;;;;;;;7.65;1.77;;;20.10;68.40;;;;;;5066237;28;20118;-66
2022/09/09 10:09:54;;;;;;;6.78;1.75;;;20.10;68.30;;;;;;5086497;28;20127;-66
2022/09/09 10:12:24;;;;;;;9.07;1.90;;;20.10;68.60;;;;;;5059377;28;20032;-66
2022/09/09 10:15:21;;;;;;;7.57;1.88;;;20.10;68.60;;;;;;5090628;28;20036;-66
2022/09/09 10:17:54;;;;;;;7.95;1.90;;;20.00;68.50;;;;;;5092664;28;20063;-66
2022/09/09 10:20:40;;;;;;;7.10;1.70;;;20.00;68.70;;;;;;5094811;28;20110;-67
2022/09/09 10:23:27;;;;;;;8.05;1.77;;;19.90;68.80;;;;;;5094166;28;20158;-67
2022/09/09 10:26:07;;;;;;;6.82;1.63;;;19.90;68.80;;;;;;5094462;28;20169;-66
2022/09/09 10:28:54;;;;;;;4.75;1.45;;;19.80;68.80;;;;;;5094186;28;20513;-67
2022/09/09 10:31:42;;;;;;;7.78;2.08;;;19.80;68.70;;;;;;5094359;28;20048;-67
2022/09/09 10:34:42;;;;;;;6.00;1.85;;;19.80;68.60;;;;;;5091533;28;20111;-67
2022/09/09 10:37:35;;;;;;;5.00;1.77;;;19.80;68.60;;;;;;5092116;28;20028;-66
2022/09/09 10:40:26;;;;;;;5.30;1.73;;;19.90;68.70;;;;;;5093348;28;20043;-67
2022/09/09 10:42:58;;;;;;;7.97;1.73;;;19.90;68.80;;;;;;5080496;28;20032;-66
2022/09/09 10:45:35;;;;;;;6.10;1.90;;;19.90;68.60;;;;;;5089616;28;20032;-67
2022/09/09 10:48:16;;;;;;;6.63;1.83;;;19.90;68.50;;;;;;5086333;28;20061;-66
2022/09/09 10:50:42;;;;;;;;;;;19.90;68.40;;;;;;5094222;28;20097;-67
2022/09/09 10:53:38;;;;;;;8.43;1.88;;;19.90;68.50;;;;;;5064903;28;20313;-67
2022/09/09 10:56:10;;;;;;;5.28;1.63;;;19.90;68.80;;;;;;5086234;28;20028;-66
2022/09/09 10:58:44;;;;;;;6.50;1.67;;;19.80;68.90;;;;;;5085698;28;20929;-67
2022/09/09 11:01:17;;;;;;;6.38;1.70;;;19.90;69.00;;;;;;5070447;28;20696;-67
2022/09/09 11:03:47;;;;;;;7.38;2.28;;;19.90;69.20;;;;;;5059313;28;20024;-67
2022/09/09 11:06:20;;;;;;;5.07;2.10;;;19.90;69.00;;;;;;5090890;28;20032;-67
2022/09/09 11:08:49;;;;;;;6.75;2.05;;;20.00;69.00;;;;;;5093694;28;20032;-67
2022/09/09 11:11:43;;;;;;;8.27;1.83;;;19.90;68.90;;;;;;5091149;28;20029;-67
2022/09/09 11:14:14;;;;;;;9.50;1.80;;;20.00;68.80;;;;;;5082857;28;20095;-67
2022/09/09 11:16:52;;;;;;;9.13;1.80;;;20.00;68.80;;;;;;5088517;28;20075;-67
2022/09/09 11:19:26;;;;;;;8.60;1.52;;;20.00;68.50;;;;;;5096080;28;20021;-67
2022/09/09 11:21:53;;;;;;;6.13;1.48;;;20.00;68.70;;;;;;5084875;28;20047;-67
2022/09/09 11:24:40;;;;;;;6.85;1.73;;;20.00;68.80;;;;;;5084665;28;20099;-67
2022/09/09 11:27:12;;;;;;;5.53;1.67;;;20.00;69.00;;;;;;5085873;28;20130;-67
2022/09/09 11:30:00;;;;;;;6.18;1.80;;;20.00;69.10;;;;;;5094346;28;20472;-67
2022/09/09 11:33:05;;;;;;;6.05;1.95;;;20.10;69.50;;;;;;5083407;28;20039;-67
2022/09/09 11:36:07;;;;;;;6.60;1.70;;;20.20;69.60;;;;;;5060034;28;20456;-67
2022/09/09 11:38:46;;;;;;;7.10;1.60;;;20.20;70.40;;;;;;5063171;28;20071;-68
2022/09/09 11:41:14;;;;;;;6.22;1.77;;;20.20;69.90;;;;;;5064587;28;20028;-67
2022/09/09 11:43:51;;;;;;;6.47;1.67;;;20.20;70.20;;;;;;5065424;28;20440;-68
2022/09/09 11:46:33;;;;;;;6.53;1.70;;;20.20;70.00;;;;;;5086928;28;20024;-68
2022/09/09 11:49:06;;;;;;;5.13;1.83;;;20.10;70.00;;;;;;5086052;28;20032;-67
2022/09/09 11:51:34;;;;;;;6.22;1.65;;;20.20;70.20;;;;;;5090281;28;20055;-67
2022/09/09 11:54:21;;;;;;;5.50;1.65;;;20.20;70.20;;;;;;5092764;28;20031;-68
2022/09/09 11:56:47;;;;;;;6.10;1.67;;;20.20;70.20;;;;;;5077280;28;20466;-67
2022/09/09 11:59:32;;;;;;;4.40;1.45;;;20.20;70.30;;;;;;5074755;28;20050;-68
2022/09/09 12:02:10;;;;;;;8.63;1.58;;;20.20;70.60;;;;;;5073070;28;20399;-67
2022/09/09 12:04:48;;;;;;;6.13;1.85;;;20.20;70.80;;;;;;5092654;28;20555;-67
2022/09/09 12:07:29;;;;;;;4.80;1.70;;;20.10;71.10;;;;;;5087900;28;20452;-67
2022/09/09 12:10:21;;;;;;;6.78;1.80;;;20.20;71.40;;;;;;5074695;28;20456;-67
2022/09/09 12:12:47;;;;;;;7.30;1.98;;;20.30;71.40;;;;;;5083903;28;20060;-67
2022/09/09 12:15:12;;;;;;;5.70;1.80;;;20.40;71.10;;;;;;5093425;28;20016;-68
2022/09/09 12:17:42;;;;;;;6.20;1.92;;;20.40;71.10;;;;;;5054535;28;20055;-68
2022/09/09 12:20:31;;;;;;;4.38;1.70;;;20.50;71.10;;;;;;5090608;28;20036;-67
2022/09/09 12:23:13;;;;;;;4.35;1.73;;;20.60;70.90;;;;;;5086376;28;20044;-67
2022/09/09 12:26:05;;;;;;;4.63;1.60;;;20.50;70.90;;;;;;5090055;28;20031;-74
2022/09/09 12:28:57;;;;;;;7.60;1.80;;;20.50;71.10;;;;;;5068553;28;20020;-72
2022/09/09 12:31:31;;;;;;;9.60;1.88;;;20.40;71.10;;;;;;5076266;28;20051;-71
2022/09/09 12:34:14;;;;;;;4.32;1.70;;;20.30;71.40;;;;;;5091500;28;20031;-72
2022/09/09 12:36:44;;;;;;;5.70;1.70;;;20.30;71.20;;;;;;5070832;28;20465;-72
2022/09/09 12:39:36;;;;;;;4.80;1.77;;;20.20;71.20;;;;;;5095792;28;20499;-71
2022/09/09 12:42:03;;;;;;;5.28;1.85;;;20.30;71.20;;;;;;5095410;28;20055;-71
2022/09/09 12:44:30;;;;;;;7.18;1.88;;;20.40;71.10;;;;;;5081692;28;20017;-71
2022/09/09 12:46:59;;;;;;;6.30;1.70;;;20.40;70.80;;;;;;5086479;28;20407;-70
2022/09/09 12:49:36;;;;;;;4.72;1.52;;;20.40;70.60;;;;;;5084140;28;20110;-71
2022/09/09 12:52:14;;;;;;;4.25;1.70;;;20.40;70.50;;;;;;5092694;28;20425;-70
2022/09/09 12:54:46;;;;;;;5.00;1.70;;;20.50;70.60;;;;;;5066522;28;20115;-71
2022/09/09 12:57:13;;;;;;;4.60;1.45;;;20.50;70.70;;;;;;5052127;28;20039;-70
2022/09/09 12:59:45;;;;;;;7.75;2.30;;;20.50;70.50;;;;;;5075111;28;20061;-70
2022/09/09 13:02:22;;;;;;;7.15;2.05;;;20.60;70.40;;;;;;5073016;28;20060;-71
2022/09/09 13:04:50;;;;;;;7.70;1.77;;;20.50;70.40;;;;;;5065368;28;20036;-71
2022/09/09 13:07:16;;;;;;;6.53;1.85;;;20.50;70.50;;;;;;5070420;28;20024;-71
2022/09/09 13:09:44;;;;;;;3.90;1.83;;;20.50;70.60;;;;;;5083424;28;20030;-71
2022/09/09 13:12:22;;;;;;;4.22;1.42;;;20.40;70.50;;;;;;5083337;28;20039;-72
2022/09/09 13:14:51;;;;;;;5.32;1.77;;;20.40;70.80;;;;;;5067433;28;20039;-71
2022/09/09 13:17:23;;;;;;;6.18;1.92;;;20.40;71.10;;;;;;5064418;28;20172;-70
2022/09/09 13:19:52;;;;;;;3.70;1.33;;;20.40;71.30;;;;;;5074103;28;20112;-70